sensor_id;sensor_type;location;lat;lon;timestamp;P1;durP1;ratioP1;P2;durP2;ratioP2
30818;SDS011;17546;42.674;23.284;2022-09-23T00:01:27;5.97;;;4.75;;
30818;SDS011;17546;42.674;23.284;2022-09-23T00:03:53;7.93;;;5.40;;
30818;SDS011;17546;42.674;23.284;2022-09-23T00:06:21;7.72;;;5.10;;
30818;SDS011;17546;42.674;23.284;2022-09-23T00:08:48;8.50;;;5.15;;
30818;SDS011;17546;42.674;23.284;2022-09-23T00:11:15;9.18;;;5.47;;
30818;SDS011;17546;42.674;23.284;2022-09-23T00:13:48;7.75;;;5.30;;
30818;SDS011;17546;42.674;23.284;2022-09-23T00:16:19;6.68;;;5.15;;
30818;SDS011;17546;42.674;23.284;2022-09-23T00:18:47;9.68;;;5.60;;
30818;SDS011;17546;42.674;23.284;2022-09-23T00:21:14;10.30;;;6.13;;
30818;SDS011;17546;42.674;23.284;2022-09-23T00:23:40;8.15;;;5.85;;
30818;SDS011;17546;42.674;23.284;2022-09-23T00:26:07;8.88;;;5.78;;
30818;SDS011;17546;42.674;23.284;2022-09-23T00:28:34;10.00;;;6.18;;
30818;SDS011;17546;42.674;23.284;2022-09-23T00:31:03;10.68;;;5.18;;
30818;SDS011;17546;42.674;23.284;2022-09-23T00:33:32;8.07;;;6.22;;
30818;SDS011;17546;42.674;23.284;2022-09-23T00:35:59;8.35;;;5.50;;
30818;SDS011;17546;42.674;23.284;2022-09-23T00:38:26;6.65;;;5.18;;
30818;SDS011;17546;42.674;23.284;2022-09-23T00:40:51;9.10;;;5.72;;
30818;SDS011;17546;42.674;23.284;2022-09-23T00:43:17;7.15;;;5.32;;
30818;SDS011;17546;42.674;23.284;2022-09-23T00:45:44;8.98;;;5.63;;
30818;SDS011;17546;42.674;23.284;2022-09-23T00:48:18;7.40;;;5.05;;
30818;SDS011;17546;42.674;23.284;2022-09-23T00:50:47;7.32;;;5.30;;
30818;SDS011;17546;42.674;23.284;2022-09-23T00:53:16;6.97;;;4.88;;
30818;SDS011;17546;42.674;23.284;2022-09-23T00:55:48;7.78;;;5.65;;
30818;SDS011;17546;42.674;23.284;2022-09-23T00:58:17;6.80;;;4.70;;
30818;SDS011;17546;42.674;23.284;2022-09-23T01:00:47;7.53;;;5.18;;
30818;SDS011;17546;42.674;23.284;2022-09-23T01:03:17;7.47;;;5.65;;
30818;SDS011;17546;42.674;23.284;2022-09-23T01:05:43;9.00;;;5.32;;
30818;SDS011;17546;42.674;23.284;2022-09-23T01:08:10;9.32;;;5.10;;
30818;SDS011;17546;42.674;23.284;2022-09-23T01:19:41;11.45;;;6.32;;
30818;SDS011;17546;42.674;23.284;2022-09-23T01:21:37;9.43;;;6.15;;
30818;SDS011;17546;42.674;23.284;2022-09-23T01:32:32;11.23;;;6.20;;
30818;SDS011;17546;42.674;23.284;2022-09-23T01:40:55;7.95;;;5.40;;
30818;SDS011;17546;42.674;23.284;2022-09-23T01:46:27;8.95;;;6.10;;
30818;SDS011;17546;42.674;23.284;2022-09-23T01:51:34;8.70;;;6.20;;
30818;SDS011;17546;42.674;23.284;2022-09-23T01:54:04;8.63;;;6.03;;
30818;SDS011;17546;42.674;23.284;2022-09-23T01:56:37;10.93;;;6.07;;
30818;SDS011;17546;42.674;23.284;2022-09-23T01:59:35;8.40;;;5.45;;
30818;SDS011;17546;42.674;23.284;2022-09-23T02:02:22;8.20;;;5.90;;
30818;SDS011;17546;42.674;23.284;2022-09-23T02:04:55;7.18;;;5.80;;
30818;SDS011;17546;42.674;23.284;2022-09-23T02:12:48;9.52;;;6.35;;
30818;SDS011;17546;42.674;23.284;2022-09-23T02:15:30;7.90;;;6.03;;
30818;SDS011;17546;42.674;23.284;2022-09-23T02:18:19;8.45;;;5.90;;
30818;SDS011;17546;42.674;23.284;2022-09-23T02:20:49;9.25;;;5.90;;
30818;SDS011;17546;42.674;23.284;2022-09-23T02:23:26;9.82;;;5.90;;
30818;SDS011;17546;42.674;23.284;2022-09-23T02:30:58;8.50;;;5.70;;
30818;SDS011;17546;42.674;23.284;2022-09-23T02:33:37;9.30;;;5.68;;
30818;SDS011;17546;42.674;23.284;2022-09-23T02:36:18;7.63;;;5.10;;
30818;SDS011;17546;42.674;23.284;2022-09-23T02:39:01;10.23;;;5.40;;
30818;SDS011;17546;42.674;23.284;2022-09-23T02:44:36;11.57;;;7.20;;
30818;SDS011;17546;42.674;23.284;2022-09-23T02:47:02;14.88;;;6.82;;
30818;SDS011;17546;42.674;23.284;2022-09-23T02:49:28;13.43;;;7.50;;
30818;SDS011;17546;42.674;23.284;2022-09-23T02:52:03;15.73;;;7.38;;
30818;SDS011;17546;42.674;23.284;2022-09-23T02:54:35;12.32;;;7.55;;
30818;SDS011;17546;42.674;23.284;2022-09-23T02:57:02;13.95;;;6.60;;
30818;SDS011;17546;42.674;23.284;2022-09-23T02:59:30;7.30;;;5.35;;
30818;SDS011;17546;42.674;23.284;2022-09-23T03:02:17;8.52;;;5.78;;
30818;SDS011;17546;42.674;23.284;2022-09-23T03:10:33;8.35;;;5.05;;
30818;SDS011;17546;42.674;23.284;2022-09-23T03:13:16;10.23;;;5.20;;
30818;SDS011;17546;42.674;23.284;2022-09-23T03:15:54;10.95;;;5.20;;
30818;SDS011;17546;42.674;23.284;2022-09-23T03:18:40;8.75;;;5.28;;
30818;SDS011;17546;42.674;23.284;2022-09-23T03:24:08;12.40;;;4.90;;
30818;SDS011;17546;42.674;23.284;2022-09-23T03:26:43;6.22;;;4.80;;
30818;SDS011;17546;42.674;23.284;2022-09-23T03:29:11;6.30;;;4.60;;
30818;SDS011;17546;42.674;23.284;2022-09-23T03:31:39;7.28;;;4.78;;
30818;SDS011;17546;42.674;23.284;2022-09-23T03:34:12;6.25;;;4.70;;
30818;SDS011;17546;42.674;23.284;2022-09-23T03:36:54;6.55;;;4.57;;
30818;SDS011;17546;42.674;23.284;2022-09-23T03:41:54;8.32;;;5.50;;
30818;SDS011;17546;42.674;23.284;2022-09-23T03:44:23;7.07;;;5.10;;
30818;SDS011;17546;42.674;23.284;2022-09-23T03:46:48;9.15;;;4.93;;
30818;SDS011;17546;42.674;23.284;2022-09-23T03:49:16;8.13;;;5.55;;
30818;SDS011;17546;42.674;23.284;2022-09-23T03:51:56;8.30;;;5.50;;
30818;SDS011;17546;42.674;23.284;2022-09-23T03:54:23;8.50;;;5.43;;
30818;SDS011;17546;42.674;23.284;2022-09-23T03:56:49;11.05;;;5.40;;
30818;SDS011;17546;42.674;23.284;2022-09-23T03:59:16;8.60;;;5.57;;
30818;SDS011;17546;42.674;23.284;2022-09-23T04:01:41;8.43;;;5.43;;
30818;SDS011;17546;42.674;23.284;2022-09-23T04:04:08;10.10;;;6.05;;
30818;SDS011;17546;42.674;23.284;2022-09-23T04:06:34;10.38;;;6.32;;
30818;SDS011;17546;42.674;23.284;2022-09-23T04:08:59;11.48;;;6.53;;
30818;SDS011;17546;42.674;23.284;2022-09-23T04:11:26;12.30;;;6.57;;
30818;SDS011;17546;42.674;23.284;2022-09-23T04:13:54;16.10;;;6.72;;
30818;SDS011;17546;42.674;23.284;2022-09-23T04:16:20;9.98;;;6.88;;
30818;SDS011;17546;42.674;23.284;2022-09-23T04:18:46;13.25;;;7.50;;
30818;SDS011;17546;42.674;23.284;2022-09-23T04:21:12;13.18;;;7.68;;
30818;SDS011;17546;42.674;23.284;2022-09-23T04:23:38;12.70;;;8.07;;
30818;SDS011;17546;42.674;23.284;2022-09-23T04:26:04;16.90;;;7.90;;
30818;SDS011;17546;42.674;23.284;2022-09-23T04:28:30;14.15;;;8.57;;
30818;SDS011;17546;42.674;23.284;2022-09-23T04:30:55;14.82;;;8.73;;
30818;SDS011;17546;42.674;23.284;2022-09-23T04:33:22;14.10;;;8.90;;
30818;SDS011;17546;42.674;23.284;2022-09-23T04:35:51;13.70;;;8.80;;
30818;SDS011;17546;42.674;23.284;2022-09-23T04:38:17;12.88;;;8.40;;
30818;SDS011;17546;42.674;23.284;2022-09-23T04:40:43;14.48;;;7.82;;
30818;SDS011;17546;42.674;23.284;2022-09-23T04:43:08;17.55;;;8.75;;
30818;SDS011;17546;42.674;23.284;2022-09-23T04:45:34;13.65;;;7.82;;
30818;SDS011;17546;42.674;23.284;2022-09-23T04:48:00;14.02;;;8.07;;
30818;SDS011;17546;42.674;23.284;2022-09-23T04:50:26;19.15;;;9.05;;
30818;SDS011;17546;42.674;23.284;2022-09-23T04:52:52;12.05;;;8.20;;
30818;SDS011;17546;42.674;23.284;2022-09-23T04:55:18;15.07;;;8.90;;
30818;SDS011;17546;42.674;23.284;2022-09-23T04:57:44;14.60;;;8.77;;
30818;SDS011;17546;42.674;23.284;2022-09-23T05:00:09;18.83;;;9.40;;
30818;SDS011;17546;42.674;23.284;2022-09-23T05:02:45;18.77;;;10.15;;
30818;SDS011;17546;42.674;23.284;2022-09-23T05:05:13;17.23;;;10.40;;
30818;SDS011;17546;42.674;23.284;2022-09-23T05:07:42;17.92;;;10.52;;
30818;SDS011;17546;42.674;23.284;2022-09-23T05:10:08;21.10;;;10.68;;
30818;SDS011;17546;42.674;23.284;2022-09-23T05:12:33;21.85;;;11.18;;
30818;SDS011;17546;42.674;23.284;2022-09-23T05:14:58;15.75;;;10.63;;
30818;SDS011;17546;42.674;23.284;2022-09-23T05:17:24;15.70;;;10.73;;
30818;SDS011;17546;42.674;23.284;2022-09-23T05:19:49;18.92;;;11.00;;
30818;SDS011;17546;42.674;23.284;2022-09-23T05:22:15;19.83;;;11.13;;
30818;SDS011;17546;42.674;23.284;2022-09-23T05:24:40;18.52;;;11.35;;
30818;SDS011;17546;42.674;23.284;2022-09-23T05:27:06;16.75;;;11.38;;
30818;SDS011;17546;42.674;23.284;2022-09-23T05:29:32;15.55;;;11.00;;
30818;SDS011;17546;42.674;23.284;2022-09-23T05:31:57;17.38;;;10.50;;
30818;SDS011;17546;42.674;23.284;2022-09-23T05:34:23;20.90;;;10.75;;
30818;SDS011;17546;42.674;23.284;2022-09-23T05:36:48;14.25;;;10.13;;
30818;SDS011;17546;42.674;23.284;2022-09-23T05:39:14;16.77;;;9.40;;
30818;SDS011;17546;42.674;23.284;2022-09-23T05:41:40;16.05;;;9.93;;
30818;SDS011;17546;42.674;23.284;2022-09-23T05:44:06;15.80;;;9.50;;
30818;SDS011;17546;42.674;23.284;2022-09-23T05:46:32;15.82;;;9.70;;
30818;SDS011;17546;42.674;23.284;2022-09-23T05:48:58;15.50;;;9.02;;
30818;SDS011;17546;42.674;23.284;2022-09-23T05:51:24;18.98;;;8.27;;
30818;SDS011;17546;42.674;23.284;2022-09-23T05:53:51;11.40;;;8.02;;
30818;SDS011;17546;42.674;23.284;2022-09-23T05:56:19;13.40;;;8.15;;
30818;SDS011;17546;42.674;23.284;2022-09-23T05:58:49;13.80;;;7.50;;
30818;SDS011;17546;42.674;23.284;2022-09-23T06:01:19;11.70;;;7.07;;
30818;SDS011;17546;42.674;23.284;2022-09-23T06:03:52;11.98;;;7.47;;
30818;SDS011;17546;42.674;23.284;2022-09-23T06:06:19;11.10;;;6.32;;
30818;SDS011;17546;42.674;23.284;2022-09-23T06:08:53;10.20;;;6.30;;
30818;SDS011;17546;42.674;23.284;2022-09-23T06:11:18;9.05;;;6.85;;
30818;SDS011;17546;42.674;23.284;2022-09-23T06:13:45;8.63;;;6.28;;
30818;SDS011;17546;42.674;23.284;2022-09-23T06:16:12;10.25;;;7.07;;
30818;SDS011;17546;42.674;23.284;2022-09-23T06:18:39;9.80;;;6.63;;
30818;SDS011;17546;42.674;23.284;2022-09-23T06:21:11;7.88;;;6.38;;
30818;SDS011;17546;42.674;23.284;2022-09-23T06:23:40;8.40;;;5.88;;
30818;SDS011;17546;42.674;23.284;2022-09-23T06:26:07;9.00;;;6.10;;
30818;SDS011;17546;42.674;23.284;2022-09-23T06:28:35;8.07;;;6.25;;
30818;SDS011;17546;42.674;23.284;2022-09-23T06:31:03;8.13;;;5.90;;
30818;SDS011;17546;42.674;23.284;2022-09-23T06:33:32;7.88;;;5.30;;
30818;SDS011;17546;42.674;23.284;2022-09-23T06:35:58;7.97;;;5.70;;
30818;SDS011;17546;42.674;23.284;2022-09-23T06:38:25;11.65;;;5.72;;
30818;SDS011;17546;42.674;23.284;2022-09-23T06:40:52;10.57;;;5.95;;
30818;SDS011;17546;42.674;23.284;2022-09-23T06:43:20;9.60;;;5.57;;
30818;SDS011;17546;42.674;23.284;2022-09-23T06:45:51;8.65;;;5.95;;
30818;SDS011;17546;42.674;23.284;2022-09-23T06:48:17;7.65;;;5.72;;
30818;SDS011;17546;42.674;23.284;2022-09-23T06:50:43;8.57;;;6.10;;
30818;SDS011;17546;42.674;23.284;2022-09-23T06:53:08;10.38;;;6.65;;
30818;SDS011;17546;42.674;23.284;2022-09-23T06:55:34;11.52;;;6.32;;
30818;SDS011;17546;42.674;23.284;2022-09-23T06:57:59;9.82;;;6.43;;
30818;SDS011;17546;42.674;23.284;2022-09-23T07:00:24;11.25;;;6.45;;
30818;SDS011;17546;42.674;23.284;2022-09-23T07:02:50;10.00;;;6.88;;
30818;SDS011;17546;42.674;23.284;2022-09-23T07:05:16;14.25;;;6.53;;
30818;SDS011;17546;42.674;23.284;2022-09-23T07:07:45;11.45;;;7.07;;
30818;SDS011;17546;42.674;23.284;2022-09-23T07:10:10;8.38;;;6.30;;
30818;SDS011;17546;42.674;23.284;2022-09-23T07:12:36;10.20;;;7.00;;
30818;SDS011;17546;42.674;23.284;2022-09-23T07:15:02;10.70;;;6.53;;
30818;SDS011;17546;42.674;23.284;2022-09-23T07:17:28;8.40;;;6.28;;
30818;SDS011;17546;42.674;23.284;2022-09-23T07:19:54;7.70;;;5.68;;
30818;SDS011;17546;42.674;23.284;2022-09-23T07:22:20;8.77;;;6.07;;
30818;SDS011;17546;42.674;23.284;2022-09-23T07:24:48;11.77;;;5.90;;
30818;SDS011;17546;42.674;23.284;2022-09-23T07:27:13;8.63;;;6.10;;
30818;SDS011;17546;42.674;23.284;2022-09-23T07:29:41;7.50;;;5.15;;
30818;SDS011;17546;42.674;23.284;2022-09-23T07:32:11;7.97;;;5.25;;
30818;SDS011;17546;42.674;23.284;2022-09-23T07:34:37;6.90;;;5.32;;
30818;SDS011;17546;42.674;23.284;2022-09-23T07:37:02;6.53;;;4.50;;
30818;SDS011;17546;42.674;23.284;2022-09-23T07:39:28;7.15;;;5.00;;
30818;SDS011;17546;42.674;23.284;2022-09-23T07:41:53;10.43;;;5.60;;
30818;SDS011;17546;42.674;23.284;2022-09-23T07:44:19;12.48;;;5.28;;
30818;SDS011;17546;42.674;23.284;2022-09-23T07:46:46;10.40;;;5.03;;
30818;SDS011;17546;42.674;23.284;2022-09-23T07:49:12;7.60;;;4.60;;
30818;SDS011;17546;42.674;23.284;2022-09-23T07:51:38;7.07;;;4.90;;
30818;SDS011;17546;42.674;23.284;2022-09-23T07:54:06;6.65;;;4.72;;
30818;SDS011;17546;42.674;23.284;2022-09-23T07:56:35;6.85;;;4.60;;
30818;SDS011;17546;42.674;23.284;2022-09-23T07:59:02;7.85;;;4.60;;
30818;SDS011;17546;42.674;23.284;2022-09-23T08:01:32;7.00;;;5.15;;
30818;SDS011;17546;42.674;23.284;2022-09-23T08:04:01;9.45;;;5.30;;
30818;SDS011;17546;42.674;23.284;2022-09-23T08:06:30;6.75;;;4.80;;
30818;SDS011;17546;42.674;23.284;2022-09-23T08:08:56;11.18;;;5.03;;
30818;SDS011;17546;42.674;23.284;2022-09-23T08:11:23;8.45;;;4.85;;
30818;SDS011;17546;42.674;23.284;2022-09-23T08:13:49;10.82;;;5.13;;
30818;SDS011;17546;42.674;23.284;2022-09-23T08:16:16;5.68;;;3.67;;
30818;SDS011;17546;42.674;23.284;2022-09-23T08:18:44;5.70;;;4.40;;
30818;SDS011;17546;42.674;23.284;2022-09-23T08:21:10;9.63;;;4.60;;
30818;SDS011;17546;42.674;23.284;2022-09-23T08:23:36;6.07;;;4.40;;
30818;SDS011;17546;42.674;23.284;2022-09-23T08:26:02;5.78;;;3.83;;
30818;SDS011;17546;42.674;23.284;2022-09-23T08:28:30;9.00;;;4.38;;
30818;SDS011;17546;42.674;23.284;2022-09-23T08:30:57;6.57;;;4.32;;
30818;SDS011;17546;42.674;23.284;2022-09-23T08:33:23;5.35;;;4.00;;
30818;SDS011;17546;42.674;23.284;2022-09-23T08:35:49;7.28;;;4.28;;
30818;SDS011;17546;42.674;23.284;2022-09-23T08:38:15;5.15;;;3.70;;
30818;SDS011;17546;42.674;23.284;2022-09-23T08:40:42;4.18;;;3.58;;
30818;SDS011;17546;42.674;23.284;2022-09-23T08:46:11;4.80;;;3.60;;
30818;SDS011;17546;42.674;23.284;2022-09-23T08:48:42;4.68;;;3.00;;
30818;SDS011;17546;42.674;23.284;2022-09-23T08:51:29;3.78;;;2.90;;
30818;SDS011;17546;42.674;23.284;2022-09-23T08:54:00;6.97;;;3.38;;
30818;SDS011;17546;42.674;23.284;2022-09-23T08:56:25;3.95;;;3.08;;
30818;SDS011;17546;42.674;23.284;2022-09-23T09:01:44;4.45;;;3.50;;
30818;SDS011;17546;42.674;23.284;2022-09-23T09:04:15;4.88;;;2.83;;
30818;SDS011;17546;42.674;23.284;2022-09-23T09:09:22;3.53;;;2.88;;
30818;SDS011;17546;42.674;23.284;2022-09-23T09:11:50;6.47;;;2.72;;
30818;SDS011;17546;42.674;23.284;2022-09-23T09:14:28;6.30;;;2.28;;
30818;SDS011;17546;42.674;23.284;2022-09-23T09:17:04;3.33;;;2.70;;
30818;SDS011;17546;42.674;23.284;2022-09-23T09:27:48;5.13;;;2.90;;
30818;SDS011;17546;42.674;23.284;2022-09-23T09:30:14;7.00;;;2.58;;
30818;SDS011;17546;42.674;23.284;2022-09-23T09:32:49;4.25;;;2.70;;
30818;SDS011;17546;42.674;23.284;2022-09-23T09:35:24;2.90;;;2.45;;
30818;SDS011;17546;42.674;23.284;2022-09-23T09:38:00;3.70;;;2.35;;
30818;SDS011;17546;42.674;23.284;2022-09-23T09:40:27;2.67;;;2.08;;
30818;SDS011;17546;42.674;23.284;2022-09-23T09:42:53;3.22;;;2.33;;
30818;SDS011;17546;42.674;23.284;2022-09-23T09:55:39;3.80;;;2.83;;
30818;SDS011;17546;42.674;23.284;2022-09-23T09:58:05;2.88;;;2.20;;
30818;SDS011;17546;42.674;23.284;2022-09-23T10:11:08;3.28;;;2.30;;
30818;SDS011;17546;42.674;23.284;2022-09-23T10:13:59;4.97;;;2.42;;
30818;SDS011;17546;42.674;23.284;2022-09-23T10:16:25;4.43;;;2.28;;
30818;SDS011;17546;42.674;23.284;2022-09-23T10:18:51;2.55;;;2.08;;
30818;SDS011;17546;42.674;23.284;2022-09-23T10:21:21;4.18;;;2.20;;
30818;SDS011;17546;42.674;23.284;2022-09-23T10:23:53;2.00;;;1.73;;
30818;SDS011;17546;42.674;23.284;2022-09-23T10:26:29;3.28;;;1.90;;
30818;SDS011;17546;42.674;23.284;2022-09-23T10:29:02;5.72;;;2.42;;
30818;SDS011;17546;42.674;23.284;2022-09-23T10:31:44;5.95;;;1.98;;
30818;SDS011;17546;42.674;23.284;2022-09-23T10:34:30;2.38;;;1.85;;
30818;SDS011;17546;42.674;23.284;2022-09-23T10:37:00;2.70;;;1.90;;
30818;SDS011;17546;42.674;23.284;2022-09-23T10:39:31;5.70;;;1.88;;
30818;SDS011;17546;42.674;23.284;2022-09-23T10:45:31;3.60;;;2.10;;
30818;SDS011;17546;42.674;23.284;2022-09-23T11:22:00;2.00;;;1.52;;
30818;SDS011;17546;42.674;23.284;2022-09-23T11:30:34;3.58;;;1.58;;
30818;SDS011;17546;42.674;23.284;2022-09-23T11:36:45;2.10;;;1.15;;
30818;SDS011;17546;42.674;23.284;2022-09-23T11:39:21;2.67;;;1.48;;
30818;SDS011;17546;42.674;23.284;2022-09-23T11:44:21;2.25;;;1.50;;
30818;SDS011;17546;42.674;23.284;2022-09-23T11:46:51;1.95;;;1.40;;
30818;SDS011;17546;42.674;23.284;2022-09-23T11:49:30;1.50;;;1.25;;
30818;SDS011;17546;42.674;23.284;2022-09-23T11:57:28;2.42;;;1.20;;
30818;SDS011;17546;42.674;23.284;2022-09-23T11:59:58;1.67;;;1.20;;
30818;SDS011;17546;42.674;23.284;2022-09-23T12:02:28;2.83;;;1.40;;
30818;SDS011;17546;42.674;23.284;2022-09-23T12:05:16;2.30;;;1.63;;
30818;SDS011;17546;42.674;23.284;2022-09-23T12:07:53;3.10;;;1.70;;
30818;SDS011;17546;42.674;23.284;2022-09-23T12:10:31;2.20;;;1.73;;
30818;SDS011;17546;42.674;23.284;2022-09-23T12:13:10;1.40;;;1.17;;
30818;SDS011;17546;42.674;23.284;2022-09-23T12:18:40;4.50;;;1.50;;
30818;SDS011;17546;42.674;23.284;2022-09-23T12:26:57;3.42;;;2.15;;
30818;SDS011;17546;42.674;23.284;2022-09-23T12:29:26;3.17;;;2.00;;
30818;SDS011;17546;42.674;23.284;2022-09-23T12:31:56;7.38;;;2.42;;
30818;SDS011;17546;42.674;23.284;2022-09-23T12:34:28;4.80;;;2.20;;
30818;SDS011;17546;42.674;23.284;2022-09-23T12:37:04;6.40;;;2.50;;
30818;SDS011;17546;42.674;23.284;2022-09-23T12:42:02;3.15;;;2.10;;
30818;SDS011;17546;42.674;23.284;2022-09-23T12:44:40;5.43;;;1.80;;
30818;SDS011;17546;42.674;23.284;2022-09-23T12:49:41;4.70;;;2.17;;
30818;SDS011;17546;42.674;23.284;2022-09-23T12:54:39;3.22;;;1.75;;
30818;SDS011;17546;42.674;23.284;2022-09-23T13:05:24;2.50;;;1.83;;
30818;SDS011;17546;42.674;23.284;2022-09-23T13:08:18;1.95;;;1.75;;
30818;SDS011;17546;42.674;23.284;2022-09-23T13:10:51;2.97;;;1.95;;
30818;SDS011;17546;42.674;23.284;2022-09-23T13:15:45;3.40;;;1.85;;
30818;SDS011;17546;42.674;23.284;2022-09-23T13:20:43;2.92;;;1.77;;
30818;SDS011;17546;42.674;23.284;2022-09-23T13:26:00;2.47;;;1.85;;
30818;SDS011;17546;42.674;23.284;2022-09-23T13:28:35;3.60;;;2.00;;
30818;SDS011;17546;42.674;23.284;2022-09-23T13:31:15;10.18;;;1.90;;
30818;SDS011;17546;42.674;23.284;2022-09-23T13:33:50;1.85;;;1.65;;
30818;SDS011;17546;42.674;23.284;2022-09-23T13:36:23;3.42;;;2.20;;
30818;SDS011;17546;42.674;23.284;2022-09-23T13:38:49;3.22;;;1.70;;
30818;SDS011;17546;42.674;23.284;2022-09-23T13:46:20;2.10;;;1.88;;
30818;SDS011;17546;42.674;23.284;2022-09-23T13:48:50;8.70;;;2.08;;
30818;SDS011;17546;42.674;23.284;2022-09-23T13:51:22;3.20;;;2.08;;
30818;SDS011;17546;42.674;23.284;2022-09-23T13:53:51;3.67;;;1.90;;
30818;SDS011;17546;42.674;23.284;2022-09-23T13:56:19;7.65;;;2.33;;
30818;SDS011;17546;42.674;23.284;2022-09-23T13:58:45;3.78;;;2.30;;
30818;SDS011;17546;42.674;23.284;2022-09-23T14:01:30;3.88;;;1.60;;
30818;SDS011;17546;42.674;23.284;2022-09-23T14:03:57;3.92;;;2.17;;
30818;SDS011;17546;42.674;23.284;2022-09-23T14:06:23;2.83;;;2.10;;
30818;SDS011;17546;42.674;23.284;2022-09-23T14:08:51;2.03;;;1.52;;
30818;SDS011;17546;42.674;23.284;2022-09-23T14:11:19;8.35;;;1.67;;
30818;SDS011;17546;42.674;23.284;2022-09-23T14:13:48;3.67;;;1.75;;
30818;SDS011;17546;42.674;23.284;2022-09-23T14:16:18;2.90;;;1.70;;
30818;SDS011;17546;42.674;23.284;2022-09-23T14:18:45;2.53;;;1.83;;
30818;SDS011;17546;42.674;23.284;2022-09-23T14:21:46;10.32;;;2.65;;
30818;SDS011;17546;42.674;23.284;2022-09-23T14:24:11;2.92;;;1.70;;
30818;SDS011;17546;42.674;23.284;2022-09-23T14:26:42;3.53;;;1.60;;
30818;SDS011;17546;42.674;23.284;2022-09-23T14:29:12;5.70;;;1.77;;
30818;SDS011;17546;42.674;23.284;2022-09-23T14:31:40;3.40;;;2.10;;
30818;SDS011;17546;42.674;23.284;2022-09-23T14:37:18;7.32;;;2.35;;
30818;SDS011;17546;42.674;23.284;2022-09-23T14:42:59;4.75;;;1.80;;
30818;SDS011;17546;42.674;23.284;2022-09-23T14:45:32;4.68;;;2.10;;
30818;SDS011;17546;42.674;23.284;2022-09-23T14:48:17;3.95;;;2.05;;
30818;SDS011;17546;42.674;23.284;2022-09-23T14:50:49;4.00;;;1.95;;
30818;SDS011;17546;42.674;23.284;2022-09-23T14:55:44;5.43;;;1.92;;
30818;SDS011;17546;42.674;23.284;2022-09-23T14:58:14;2.58;;;1.75;;
30818;SDS011;17546;42.674;23.284;2022-09-23T15:00:51;3.28;;;1.75;;
30818;SDS011;17546;42.674;23.284;2022-09-23T15:03:24;8.20;;;1.95;;
30818;SDS011;17546;42.674;23.284;2022-09-23T15:05:58;5.13;;;2.00;;
30818;SDS011;17546;42.674;23.284;2022-09-23T15:08:28;2.40;;;1.73;;
30818;SDS011;17546;42.674;23.284;2022-09-23T15:10:56;6.47;;;1.92;;
30818;SDS011;17546;42.674;23.284;2022-09-23T15:13:25;3.70;;;1.98;;
30818;SDS011;17546;42.674;23.284;2022-09-23T15:15:53;2.88;;;1.90;;
30818;SDS011;17546;42.674;23.284;2022-09-23T15:20:50;4.95;;;2.10;;
30818;SDS011;17546;42.674;23.284;2022-09-23T15:26:20;4.90;;;2.60;;
30818;SDS011;17546;42.674;23.284;2022-09-23T15:28:49;4.00;;;2.65;;
30818;SDS011;17546;42.674;23.284;2022-09-23T15:31:22;5.00;;;2.40;;
30818;SDS011;17546;42.674;23.284;2022-09-23T15:33:51;4.85;;;2.75;;
30818;SDS011;17546;42.674;23.284;2022-09-23T15:36:21;3.40;;;2.20;;
30818;SDS011;17546;42.674;23.284;2022-09-23T15:38:49;3.22;;;2.30;;
30818;SDS011;17546;42.674;23.284;2022-09-23T15:41:15;3.38;;;2.45;;
30818;SDS011;17546;42.674;23.284;2022-09-23T15:43:46;3.80;;;2.67;;
30818;SDS011;17546;42.674;23.284;2022-09-23T15:46:20;5.47;;;3.40;;
30818;SDS011;17546;42.674;23.284;2022-09-23T15:48:58;3.08;;;2.47;;
30818;SDS011;17546;42.674;23.284;2022-09-23T15:51:33;7.88;;;2.85;;
30818;SDS011;17546;42.674;23.284;2022-09-23T15:54:02;4.20;;;2.80;;
30818;SDS011;17546;42.674;23.284;2022-09-23T15:56:28;4.93;;;3.00;;
30818;SDS011;17546;42.674;23.284;2022-09-23T15:58:53;5.05;;;2.72;;
30818;SDS011;17546;42.674;23.284;2022-09-23T16:01:32;5.15;;;2.65;;
30818;SDS011;17546;42.674;23.284;2022-09-23T16:04:00;10.80;;;3.03;;
30818;SDS011;17546;42.674;23.284;2022-09-23T16:06:28;9.68;;;3.03;;
30818;SDS011;17546;42.674;23.284;2022-09-23T16:08:54;5.28;;;2.78;;
30818;SDS011;17546;42.674;23.284;2022-09-23T16:11:20;9.02;;;2.60;;
30818;SDS011;17546;42.674;23.284;2022-09-23T16:13:49;5.30;;;2.78;;
30818;SDS011;17546;42.674;23.284;2022-09-23T16:16:15;3.00;;;2.40;;
30818;SDS011;17546;42.674;23.284;2022-09-23T16:18:41;4.78;;;2.25;;
30818;SDS011;17546;42.674;23.284;2022-09-23T16:21:14;4.80;;;2.53;;
30818;SDS011;17546;42.674;23.284;2022-09-23T16:23:43;5.22;;;2.70;;
30818;SDS011;17546;42.674;23.284;2022-09-23T16:29:00;6.55;;;2.70;;
30818;SDS011;17546;42.674;23.284;2022-09-23T16:31:26;4.78;;;2.53;;
30818;SDS011;17546;42.674;23.284;2022-09-23T16:33:55;6.05;;;2.60;;
30818;SDS011;17546;42.674;23.284;2022-09-23T16:38:47;8.23;;;3.05;;
30818;SDS011;17546;42.674;23.284;2022-09-23T16:41:13;4.95;;;2.72;;
30818;SDS011;17546;42.674;23.284;2022-09-23T16:43:38;7.07;;;3.45;;
30818;SDS011;17546;42.674;23.284;2022-09-23T16:46:07;7.25;;;3.83;;
30818;SDS011;17546;42.674;23.284;2022-09-23T16:48:36;9.50;;;3.20;;
30818;SDS011;17546;42.674;23.284;2022-09-23T16:51:04;6.78;;;3.38;;
30818;SDS011;17546;42.674;23.284;2022-09-23T16:53:38;10.80;;;3.70;;
30818;SDS011;17546;42.674;23.284;2022-09-23T16:56:04;16.73;;;4.38;;
30818;SDS011;17546;42.674;23.284;2022-09-23T16:58:33;7.65;;;3.75;;
30818;SDS011;17546;42.674;23.284;2022-09-23T17:01:01;10.93;;;3.90;;
30818;SDS011;17546;42.674;23.284;2022-09-23T17:03:47;7.50;;;3.65;;
30818;SDS011;17546;42.674;23.284;2022-09-23T17:06:13;7.00;;;3.35;;
30818;SDS011;17546;42.674;23.284;2022-09-23T17:08:42;5.10;;;3.63;;
30818;SDS011;17546;42.674;23.284;2022-09-23T17:11:12;4.97;;;3.50;;
30818;SDS011;17546;42.674;23.284;2022-09-23T17:13:38;6.15;;;3.60;;
30818;SDS011;17546;42.674;23.284;2022-09-23T17:16:07;12.45;;;3.97;;
30818;SDS011;17546;42.674;23.284;2022-09-23T17:18:45;6.20;;;3.80;;
30818;SDS011;17546;42.674;23.284;2022-09-23T17:21:10;10.63;;;4.00;;
30818;SDS011;17546;42.674;23.284;2022-09-23T17:23:36;7.88;;;3.78;;
30818;SDS011;17546;42.674;23.284;2022-09-23T17:26:02;13.93;;;4.25;;
30818;SDS011;17546;42.674;23.284;2022-09-23T17:28:29;7.43;;;4.05;;
30818;SDS011;17546;42.674;23.284;2022-09-23T17:30:58;12.40;;;4.20;;
30818;SDS011;17546;42.674;23.284;2022-09-23T17:33:25;10.45;;;4.47;;
30818;SDS011;17546;42.674;23.284;2022-09-23T17:35:51;11.45;;;4.65;;
30818;SDS011;17546;42.674;23.284;2022-09-23T17:38:16;13.38;;;4.75;;
30818;SDS011;17546;42.674;23.284;2022-09-23T17:40:52;9.20;;;4.82;;
30818;SDS011;17546;42.674;23.284;2022-09-23T17:43:19;9.07;;;4.65;;
30818;SDS011;17546;42.674;23.284;2022-09-23T17:45:49;9.38;;;4.93;;
30818;SDS011;17546;42.674;23.284;2022-09-23T17:48:20;11.15;;;4.53;;
30818;SDS011;17546;42.674;23.284;2022-09-23T17:51:31;7.20;;;4.57;;
30818;SDS011;17546;42.674;23.284;2022-09-23T17:53:38;8.02;;;4.60;;
30818;SDS011;17546;42.674;23.284;2022-09-23T17:56:07;10.88;;;6.15;;
30818;SDS011;17546;42.674;23.284;2022-09-23T17:58:36;12.23;;;5.18;;
30818;SDS011;17546;42.674;23.284;2022-09-23T18:01:02;13.30;;;5.75;;
30818;SDS011;17546;42.674;23.284;2022-09-23T18:03:32;16.58;;;6.05;;
30818;SDS011;17546;42.674;23.284;2022-09-23T18:06:07;14.90;;;5.75;;
30818;SDS011;17546;42.674;23.284;2022-09-23T18:08:38;11.73;;;5.65;;